Portada
METAR-TAF:

METAR-TAF

Aeroports :

Fuzhou, Xina

latitud: 26-05N, longitud: 119-17E, altitud: 85 m

Observació

L'informe es va fer fa 1 hora i 4 minuts, a les 13:00 UTC
Vent 2 kt amb direcció variable
Temperatura 29°C
Humitat 79%
Pressió 1007 hPa
Visibilitat 10 km o més
Cel ennuvolat a una alçada de 1700 ft
Escasses núvols a una alçada de 2400 ft, Cumulonimbus.

METAR: ZSFZ 031300Z VRB01MPS 9999 BKN017 FEW024CB 29/25 Q1007 BECMG TL1400 20005MPS

Hora: 22:04 (14:04 UTC)

Pronòstic

L'informe es va fer fa 4 hores i 47 minuts, a les 09:17 UTC
Pronòstic vàlid del 03 a les 12 UTC al 04 a les 12 UTC
Vent 10 kt del Sud/Sud-Oest
Visibilitat: 6000 m
Núvols disperses a una alçada de 2000 ft
Temporalment
l' 04 a les 08 UTC al 04 a les 12 UTC
Núvols disperses a una alçada de 2000 ft
Escasses núvols a una alçada de 3000 ft, Cumulonimbus.
tempesta, pluja

TAF: ZSFZ 030917Z 0312/0412 20005MPS 6000 SCT020 TX33/0406Z TN24/0321Z TEMPO 0408/0412 -TSRA SCT020 FEW030CB

Observacions i pronòstics meteorològics de més de 4000 aeroports (METAR i TAF).

Les estacions disponibles són els punts grocs i vermells al mapa.

Posi el ratolí al punt desitjat per veure el nom de l'estació.

Feu clic per veure les observacions i els pronòstics meteorològics.

Per canviar el mapa: feu clic els botons verds amb una creu de color negre per apropar; al botó verd amb un guió per allunyar la imatge; o en les fletxes verdes per a mapes adjacents.


METAR-TAF: